sensor_id;sensor_type;location;lat;lon;timestamp;temperature;humidity
4518;DHT22;2271;49.464;11.070;2022-09-17T00:00:47;12.80;99.90
4518;DHT22;2271;49.464;11.070;2022-09-17T00:03:14;12.70;99.90
4518;DHT22;2271;49.464;11.070;2022-09-17T00:05:40;12.70;99.90
4518;DHT22;2271;49.464;11.070;2022-09-17T00:08:08;12.70;99.90
4518;DHT22;2271;49.464;11.070;2022-09-17T00:10:39;12.70;99.90
4518;DHT22;2271;49.464;11.070;2022-09-17T00:13:06;12.70;99.90
4518;DHT22;2271;49.464;11.070;2022-09-17T00:15:42;12.80;99.90
4518;DHT22;2271;49.464;11.070;2022-09-17T00:18:08;12.70;99.90
4518;DHT22;2271;49.464;11.070;2022-09-17T00:20:41;12.60;99.90
4518;DHT22;2271;49.464;11.070;2022-09-17T00:23:08;12.60;99.90
4518;DHT22;2271;49.464;11.070;2022-09-17T00:25:37;12.50;99.90
4518;DHT22;2271;49.464;11.070;2022-09-17T00:28:03;12.60;99.90
4518;DHT22;2271;49.464;11.070;2022-09-17T00:30:28;12.60;99.90
4518;DHT22;2271;49.464;11.070;2022-09-17T00:32:54;12.50;99.90
4518;DHT22;2271;49.464;11.070;2022-09-17T00:35:26;12.50;99.90
4518;DHT22;2271;49.464;11.070;2022-09-17T00:37:52;12.50;99.90
4518;DHT22;2271;49.464;11.070;2022-09-17T00:40:18;12.50;99.90
4518;DHT22;2271;49.464;11.070;2022-09-17T00:42:45;12.50;99.90
4518;DHT22;2271;49.464;11.070;2022-09-17T00:45:12;12.50;99.90
4518;DHT22;2271;49.464;11.070;2022-09-17T00:47:45;12.40;99.90
4518;DHT22;2271;49.464;11.070;2022-09-17T00:50:22;12.30;99.90
4518;DHT22;2271;49.464;11.070;2022-09-17T00:52:52;12.40;99.90
4518;DHT22;2271;49.464;11.070;2022-09-17T00:55:24;12.40;99.90
4518;DHT22;2271;49.464;11.070;2022-09-17T00:57:53;12.40;99.90
4518;DHT22;2271;49.464;11.070;2022-09-17T01:00:20;12.40;99.90
4518;DHT22;2271;49.464;11.070;2022-09-17T01:02:47;12.30;99.90
4518;DHT22;2271;49.464;11.070;2022-09-17T01:05:13;12.20;99.90
4518;DHT22;2271;49.464;11.070;2022-09-17T01:16:19;12.20;99.90
4518;DHT22;2271;49.464;11.070;2022-09-17T01:21:58;12.20;99.90
4518;DHT22;2271;49.464;11.070;2022-09-17T01:27:42;12.10;99.90
4518;DHT22;2271;49.464;11.070;2022-09-17T01:33:09;12.10;99.90
4518;DHT22;2271;49.464;11.070;2022-09-17T01:44:39;12.20;99.90
4518;DHT22;2271;49.464;11.070;2022-09-17T01:47:19;12.20;99.90
4518;DHT22;2271;49.464;11.070;2022-09-17T01:49:49;12.20;99.90
4518;DHT22;2271;49.464;11.070;2022-09-17T01:52:16;12.20;99.90
4518;DHT22;2271;49.464;11.070;2022-09-17T01:54:46;12.10;99.90
4518;DHT22;2271;49.464;11.070;2022-09-17T01:57:18;12.10;99.90
4518;DHT22;2271;49.464;11.070;2022-09-17T01:59:58;12.10;99.90
4518;DHT22;2271;49.464;11.070;2022-09-17T02:02:33;12.20;99.90
4518;DHT22;2271;49.464;11.070;2022-09-17T02:05:05;12.20;99.90
4518;DHT22;2271;49.464;11.070;2022-09-17T02:07:40;12.20;99.90
4518;DHT22;2271;49.464;11.070;2022-09-17T02:10:17;12.20;99.90
4518;DHT22;2271;49.464;11.070;2022-09-17T02:12:47;12.20;99.90
4518;DHT22;2271;49.464;11.070;2022-09-17T02:15:20;12.10;99.90
4518;DHT22;2271;49.464;11.070;2022-09-17T02:17:57;12.10;99.90
4518;DHT22;2271;49.464;11.070;2022-09-17T02:20:30;12.00;99.90
4518;DHT22;2271;49.464;11.070;2022-09-17T02:23:04;12.00;99.90
4518;DHT22;2271;49.464;11.070;2022-09-17T02:25:38;12.10;99.90
4518;DHT22;2271;49.464;11.070;2022-09-17T02:28:15;12.20;99.90
4518;DHT22;2271;49.464;11.070;2022-09-17T02:30:42;12.20;99.90
4518;DHT22;2271;49.464;11.070;2022-09-17T02:33:12;12.20;99.90
4518;DHT22;2271;49.464;11.070;2022-09-17T02:35:39;12.20;99.90
4518;DHT22;2271;49.464;11.070;2022-09-17T02:38:04;12.30;99.90
4518;DHT22;2271;49.464;11.070;2022-09-17T02:40:34;12.30;99.90
4518;DHT22;2271;49.464;11.070;2022-09-17T02:48:54;12.30;99.90
4518;DHT22;2271;49.464;11.070;2022-09-17T02:51:40;12.30;99.90
4518;DHT22;2271;49.464;11.070;2022-09-17T02:54:28;12.20;99.90
4518;DHT22;2271;49.464;11.070;2022-09-17T03:02:33;12.20;99.90
4518;DHT22;2271;49.464;11.070;2022-09-17T03:05:02;12.20;99.90
4518;DHT22;2271;49.464;11.070;2022-09-17T03:07:29;12.30;99.90
4518;DHT22;2271;49.464;11.070;2022-09-17T03:09:54;12.40;99.90
4518;DHT22;2271;49.464;11.070;2022-09-17T03:12:20;12.30;99.90
4518;DHT22;2271;49.464;11.070;2022-09-17T03:14:46;12.40;99.90
4518;DHT22;2271;49.464;11.070;2022-09-17T03:17:12;12.30;99.90
4518;DHT22;2271;49.464;11.070;2022-09-17T03:19:39;12.30;99.90
4518;DHT22;2271;49.464;11.070;2022-09-17T03:22:04;12.40;99.90
4518;DHT22;2271;49.464;11.070;2022-09-17T03:24:30;12.30;99.90
4518;DHT22;2271;49.464;11.070;2022-09-17T03:26:55;12.30;99.90
4518;DHT22;2271;49.464;11.070;2022-09-17T03:29:21;12.30;99.90
4518;DHT22;2271;49.464;11.070;2022-09-17T03:31:47;12.30;99.90
4518;DHT22;2271;49.464;11.070;2022-09-17T03:34:12;12.30;99.90
4518;DHT22;2271;49.464;11.070;2022-09-17T03:36:38;12.20;99.90
4518;DHT22;2271;49.464;11.070;2022-09-17T03:39:04;12.30;99.90
4518;DHT22;2271;49.464;11.070;2022-09-17T03:41:29;12.30;99.90
4518;DHT22;2271;49.464;11.070;2022-09-17T03:43:55;12.30;99.90
4518;DHT22;2271;49.464;11.070;2022-09-17T03:46:21;12.20;99.90
4518;DHT22;2271;49.464;11.070;2022-09-17T03:48:46;12.30;99.90
4518;DHT22;2271;49.464;11.070;2022-09-17T03:51:12;12.30;99.90
4518;DHT22;2271;49.464;11.070;2022-09-17T03:53:38;12.20;99.90
4518;DHT22;2271;49.464;11.070;2022-09-17T03:56:05;12.20;99.90
4518;DHT22;2271;49.464;11.070;2022-09-17T03:58:31;12.20;99.90
4518;DHT22;2271;49.464;11.070;2022-09-17T04:00:57;12.20;99.90
4518;DHT22;2271;49.464;11.070;2022-09-17T04:03:24;12.30;99.90
4518;DHT22;2271;49.464;11.070;2022-09-17T04:05:50;12.30;99.90
4518;DHT22;2271;49.464;11.070;2022-09-17T04:08:16;12.30;99.90
4518;DHT22;2271;49.464;11.070;2022-09-17T04:10:43;12.30;99.90
4518;DHT22;2271;49.464;11.070;2022-09-17T04:13:09;12.30;99.90
4518;DHT22;2271;49.464;11.070;2022-09-17T04:15:35;12.30;99.90
4518;DHT22;2271;49.464;11.070;2022-09-17T04:18:00;12.20;99.90
4518;DHT22;2271;49.464;11.070;2022-09-17T04:20:26;12.20;99.90
4518;DHT22;2271;49.464;11.070;2022-09-17T04:22:52;12.20;99.90
4518;DHT22;2271;49.464;11.070;2022-09-17T04:25:17;12.30;99.90
4518;DHT22;2271;49.464;11.070;2022-09-17T04:27:44;12.20;99.90
4518;DHT22;2271;49.464;11.070;2022-09-17T04:30:10;12.20;99.90
4518;DHT22;2271;49.464;11.070;2022-09-17T04:32:36;12.30;99.90
4518;DHT22;2271;49.464;11.070;2022-09-17T04:35:02;12.30;99.90
4518;DHT22;2271;49.464;11.070;2022-09-17T04:37:28;12.30;99.90
4518;DHT22;2271;49.464;11.070;2022-09-17T04:39:53;12.20;99.90
4518;DHT22;2271;49.464;11.070;2022-09-17T04:42:19;12.30;99.90
4518;DHT22;2271;49.464;11.070;2022-09-17T04:44:44;12.30;99.90
4518;DHT22;2271;49.464;11.070;2022-09-17T04:47:10;12.20;99.90
4518;DHT22;2271;49.464;11.070;2022-09-17T04:49:36;12.20;99.90
4518;DHT22;2271;49.464;11.070;2022-09-17T04:52:01;12.20;99.90
4518;DHT22;2271;49.464;11.070;2022-09-17T04:54:27;12.20;99.90
4518;DHT22;2271;49.464;11.070;2022-09-17T04:56:52;12.70;99.90
4518;DHT22;2271;49.464;11.070;2022-09-17T04:59:18;12.70;99.90
4518;DHT22;2271;49.464;11.070;2022-09-17T05:01:44;12.50;99.90
4518;DHT22;2271;49.464;11.070;2022-09-17T05:04:09;12.50;99.90
4518;DHT22;2271;49.464;11.070;2022-09-17T05:06:35;12.50;99.90
4518;DHT22;2271;49.464;11.070;2022-09-17T05:09:01;12.40;99.90
4518;DHT22;2271;49.464;11.070;2022-09-17T05:11:27;12.30;99.90
4518;DHT22;2271;49.464;11.070;2022-09-17T05:13:54;12.30;99.90
4518;DHT22;2271;49.464;11.070;2022-09-17T05:16:20;12.30;99.90
4518;DHT22;2271;49.464;11.070;2022-09-17T05:18:46;12.30;99.90
4518;DHT22;2271;49.464;11.070;2022-09-17T05:21:13;12.20;99.90
4518;DHT22;2271;49.464;11.070;2022-09-17T05:23:38;12.20;99.90
4518;DHT22;2271;49.464;11.070;2022-09-17T05:26:04;12.30;99.90
4518;DHT22;2271;49.464;11.070;2022-09-17T05:28:30;12.10;99.90
4518;DHT22;2271;49.464;11.070;2022-09-17T05:30:59;12.10;99.90
4518;DHT22;2271;49.464;11.070;2022-09-17T05:33:25;12.20;99.90
4518;DHT22;2271;49.464;11.070;2022-09-17T05:35:51;12.20;99.90
4518;DHT22;2271;49.464;11.070;2022-09-17T05:38:17;12.40;99.90
4518;DHT22;2271;49.464;11.070;2022-09-17T05:40:46;12.70;99.90
4518;DHT22;2271;49.464;11.070;2022-09-17T05:43:14;12.70;99.90
4518;DHT22;2271;49.464;11.070;2022-09-17T05:45:39;12.60;99.90
4518;DHT22;2271;49.464;11.070;2022-09-17T05:48:06;12.40;99.90
4518;DHT22;2271;49.464;11.070;2022-09-17T05:50:34;12.40;99.90
4518;DHT22;2271;49.464;11.070;2022-09-17T05:53:04;12.20;99.90
4518;DHT22;2271;49.464;11.070;2022-09-17T05:55:30;12.00;99.90
4518;DHT22;2271;49.464;11.070;2022-09-17T05:57:56;11.90;99.90
4518;DHT22;2271;49.464;11.070;2022-09-17T06:00:22;11.80;99.90
4518;DHT22;2271;49.464;11.070;2022-09-17T06:02:54;11.90;99.90
4518;DHT22;2271;49.464;11.070;2022-09-17T06:05:20;11.90;99.90
4518;DHT22;2271;49.464;11.070;2022-09-17T06:07:45;11.90;99.90
4518;DHT22;2271;49.464;11.070;2022-09-17T06:10:11;11.80;99.90
4518;DHT22;2271;49.464;11.070;2022-09-17T06:12:37;11.80;99.90
4518;DHT22;2271;49.464;11.070;2022-09-17T06:15:03;11.80;99.90
4518;DHT22;2271;49.464;11.070;2022-09-17T06:17:32;11.90;99.90
4518;DHT22;2271;49.464;11.070;2022-09-17T06:19:58;12.00;99.90
4518;DHT22;2271;49.464;11.070;2022-09-17T06:22:24;12.00;99.90
4518;DHT22;2271;49.464;11.070;2022-09-17T06:24:49;12.00;99.90
4518;DHT22;2271;49.464;11.070;2022-09-17T06:27:15;12.00;99.90
4518;DHT22;2271;49.464;11.070;2022-09-17T06:29:41;11.90;99.90
4518;DHT22;2271;49.464;11.070;2022-09-17T06:32:09;11.90;99.90
4518;DHT22;2271;49.464;11.070;2022-09-17T06:34:40;11.90;99.90
4518;DHT22;2271;49.464;11.070;2022-09-17T06:37:06;11.90;99.90
4518;DHT22;2271;49.464;11.070;2022-09-17T06:39:32;11.90;99.90
4518;DHT22;2271;49.464;11.070;2022-09-17T06:41:57;11.90;99.90
4518;DHT22;2271;49.464;11.070;2022-09-17T06:44:23;11.80;99.90
4518;DHT22;2271;49.464;11.070;2022-09-17T06:46:49;12.20;99.90
4518;DHT22;2271;49.464;11.070;2022-09-17T06:49:16;12.60;99.90
4518;DHT22;2271;49.464;11.070;2022-09-17T06:51:42;12.40;99.90
4518;DHT22;2271;49.464;11.070;2022-09-17T06:54:08;12.20;99.90
4518;DHT22;2271;49.464;11.070;2022-09-17T06:56:34;12.00;99.90
4518;DHT22;2271;49.464;11.070;2022-09-17T06:59:00;12.00;99.90
4518;DHT22;2271;49.464;11.070;2022-09-17T07:01:25;11.90;99.90
4518;DHT22;2271;49.464;11.070;2022-09-17T07:03:51;11.90;99.90
4518;DHT22;2271;49.464;11.070;2022-09-17T07:06:16;11.90;99.90
4518;DHT22;2271;49.464;11.070;2022-09-17T07:08:42;11.90;99.90
4518;DHT22;2271;49.464;11.070;2022-09-17T07:11:08;11.80;99.90
4518;DHT22;2271;49.464;11.070;2022-09-17T07:13:34;11.80;99.90
4518;DHT22;2271;49.464;11.070;2022-09-17T07:16:01;11.90;99.90
4518;DHT22;2271;49.464;11.070;2022-09-17T07:18:27;11.80;99.90
4518;DHT22;2271;49.464;11.070;2022-09-17T07:20:58;11.80;99.90
4518;DHT22;2271;49.464;11.070;2022-09-17T07:23:29;11.90;99.90
4518;DHT22;2271;49.464;11.070;2022-09-17T07:25:57;11.90;99.90
4518;DHT22;2271;49.464;11.070;2022-09-17T07:28:24;11.80;99.90
4518;DHT22;2271;49.464;11.070;2022-09-17T07:30:51;11.80;99.90
4518;DHT22;2271;49.464;11.070;2022-09-17T07:33:19;11.80;99.90
4518;DHT22;2271;49.464;11.070;2022-09-17T07:38:22;12.90;99.90
4518;DHT22;2271;49.464;11.070;2022-09-17T07:40:59;12.70;99.90
4518;DHT22;2271;49.464;11.070;2022-09-17T07:43:26;12.40;99.90
4518;DHT22;2271;49.464;11.070;2022-09-17T07:45:53;12.30;99.90
4518;DHT22;2271;49.464;11.070;2022-09-17T07:48:19;12.20;99.90
4518;DHT22;2271;49.464;11.070;2022-09-17T07:50:45;12.00;99.90
4518;DHT22;2271;49.464;11.070;2022-09-17T07:53:11;12.00;99.90
4518;DHT22;2271;49.464;11.070;2022-09-17T07:55:37;12.00;99.90
4518;DHT22;2271;49.464;11.070;2022-09-17T07:58:03;12.00;99.90
4518;DHT22;2271;49.464;11.070;2022-09-17T08:00:29;12.00;99.90
4518;DHT22;2271;49.464;11.070;2022-09-17T08:02:55;11.90;99.90
4518;DHT22;2271;49.464;11.070;2022-09-17T08:05:21;12.00;99.90
4518;DHT22;2271;49.464;11.070;2022-09-17T08:07:51;12.00;99.90
4518;DHT22;2271;49.464;11.070;2022-09-17T08:10:17;12.00;99.90
4518;DHT22;2271;49.464;11.070;2022-09-17T08:12:47;12.00;99.90
4518;DHT22;2271;49.464;11.070;2022-09-17T08:15:13;12.00;99.90
4518;DHT22;2271;49.464;11.070;2022-09-17T08:17:43;12.10;99.90
4518;DHT22;2271;49.464;11.070;2022-09-17T08:20:09;12.10;99.90
4518;DHT22;2271;49.464;11.070;2022-09-17T08:22:34;12.10;99.90
4518;DHT22;2271;49.464;11.070;2022-09-17T08:25:00;12.10;99.90
4518;DHT22;2271;49.464;11.070;2022-09-17T08:27:29;12.10;99.90
4518;DHT22;2271;49.464;11.070;2022-09-17T08:29:55;12.10;99.90
4518;DHT22;2271;49.464;11.070;2022-09-17T08:32:21;12.10;99.90
4518;DHT22;2271;49.464;11.070;2022-09-17T08:34:46;12.00;99.90
4518;DHT22;2271;49.464;11.070;2022-09-17T08:37:12;12.00;99.90
4518;DHT22;2271;49.464;11.070;2022-09-17T08:39:38;12.00;99.90
4518;DHT22;2271;49.464;11.070;2022-09-17T08:42:08;12.00;99.90
4518;DHT22;2271;49.464;11.070;2022-09-17T08:44:41;12.00;99.90
4518;DHT22;2271;49.464;11.070;2022-09-17T08:47:14;12.00;99.90
4518;DHT22;2271;49.464;11.070;2022-09-17T08:49:56;12.00;99.90
4518;DHT22;2271;49.464;11.070;2022-09-17T09:05:54;12.10;99.90
4518;DHT22;2271;49.464;11.070;2022-09-17T09:08:43;12.20;99.90
4518;DHT22;2271;49.464;11.070;2022-09-17T09:11:13;12.40;99.90
4518;DHT22;2271;49.464;11.070;2022-09-17T09:13:52;12.40;99.90
4518;DHT22;2271;49.464;11.070;2022-09-17T09:16:24;12.40;99.90
4518;DHT22;2271;49.464;11.070;2022-09-17T09:18:55;12.60;99.90
4518;DHT22;2271;49.464;11.070;2022-09-17T09:21:29;12.80;99.90
4518;DHT22;2271;49.464;11.070;2022-09-17T09:24:20;13.00;99.90
4518;DHT22;2271;49.464;11.070;2022-09-17T09:34:29;13.20;99.90
4518;DHT22;2271;49.464;11.070;2022-09-17T09:39:41;13.00;99.90
4518;DHT22;2271;49.464;11.070;2022-09-17T09:42:26;13.20;99.90
4518;DHT22;2271;49.464;11.070;2022-09-17T09:44:57;13.20;99.90
4518;DHT22;2271;49.464;11.070;2022-09-17T09:50:33;13.20;99.90
4518;DHT22;2271;49.464;11.070;2022-09-17T09:58:43;13.40;99.90
4518;DHT22;2271;49.464;11.070;2022-09-17T10:01:14;13.50;99.90
4518;DHT22;2271;49.464;11.070;2022-09-17T10:03:42;13.70;99.90
4518;DHT22;2271;49.464;11.070;2022-09-17T10:06:11;13.80;99.90
4518;DHT22;2271;49.464;11.070;2022-09-17T10:08:40;14.00;99.90
4518;DHT22;2271;49.464;11.070;2022-09-17T10:13:39;14.30;99.90
4518;DHT22;2271;49.464;11.070;2022-09-17T10:16:25;14.60;99.90
4518;DHT22;2271;49.464;11.070;2022-09-17T10:23:55;15.30;99.90
4518;DHT22;2271;49.464;11.070;2022-09-17T10:26:25;15.10;99.90
4518;DHT22;2271;49.464;11.070;2022-09-17T10:29:00;15.30;99.90
4518;DHT22;2271;49.464;11.070;2022-09-17T10:31:26;15.40;99.90
4518;DHT22;2271;49.464;11.070;2022-09-17T10:34:01;15.10;99.90
4518;DHT22;2271;49.464;11.070;2022-09-17T10:36:44;15.00;99.90
4518;DHT22;2271;49.464;11.070;2022-09-17T10:39:30;15.30;99.90
4518;DHT22;2271;49.464;11.070;2022-09-17T10:44:36;15.90;99.90
4518;DHT22;2271;49.464;11.070;2022-09-17T10:47:14;15.80;99.90
4518;DHT22;2271;49.464;11.070;2022-09-17T10:49:46;15.70;99.90
4518;DHT22;2271;49.464;11.070;2022-09-17T10:52:25;15.50;99.90
4518;DHT22;2271;49.464;11.070;2022-09-17T11:00:20;14.90;99.90
4518;DHT22;2271;49.464;11.070;2022-09-17T11:08:54;16.30;99.90
4518;DHT22;2271;49.464;11.070;2022-09-17T11:19:47;16.30;99.90
4518;DHT22;2271;49.464;11.070;2022-09-17T11:30:18;17.00;99.90
4518;DHT22;2271;49.464;11.070;2022-09-17T11:33:04;17.10;99.90
4518;DHT22;2271;49.464;11.070;2022-09-17T11:35:56;16.90;99.90
4518;DHT22;2271;49.464;11.070;2022-09-17T11:38:39;17.10;99.90
4518;DHT22;2271;49.464;11.070;2022-09-17T11:41:34;17.30;99.90
4518;DHT22;2271;49.464;11.070;2022-09-17T11:44:25;17.40;99.90
4518;DHT22;2271;49.464;11.070;2022-09-17T11:47:12;17.50;99.90
4518;DHT22;2271;49.464;11.070;2022-09-17T11:49:44;17.60;99.90
4518;DHT22;2271;49.464;11.070;2022-09-17T11:52:41;17.50;99.90
4518;DHT22;2271;49.464;11.070;2022-09-17T11:55:19;17.20;99.90
4518;DHT22;2271;49.464;11.070;2022-09-17T11:57:48;17.20;99.90
4518;DHT22;2271;49.464;11.070;2022-09-17T12:00:17;17.30;99.90
4518;DHT22;2271;49.464;11.070;2022-09-17T12:05:53;17.40;99.90
4518;DHT22;2271;49.464;11.070;2022-09-17T12:08:47;17.10;99.90
4518;DHT22;2271;49.464;11.070;2022-09-17T12:11:27;16.90;99.90
4518;DHT22;2271;49.464;11.070;2022-09-17T12:14:00;16.50;99.90
4518;DHT22;2271;49.464;11.070;2022-09-17T12:16:39;15.90;99.90
4518;DHT22;2271;49.464;11.070;2022-09-17T12:21:39;15.30;99.90
4518;DHT22;2271;49.464;11.070;2022-09-17T12:24:29;15.10;99.90
4518;DHT22;2271;49.464;11.070;2022-09-17T12:27:10;14.90;99.90
4518;DHT22;2271;49.464;11.070;2022-09-17T12:58:09;15.10;99.90
4518;DHT22;2271;49.464;11.070;2022-09-17T13:00:09;15.00;99.90
4518;DHT22;2271;49.464;11.070;2022-09-17T13:10:43;15.10;99.90
4518;DHT22;2271;49.464;11.070;2022-09-17T13:16:18;15.00;99.90
4518;DHT22;2271;49.464;11.070;2022-09-17T13:21:50;15.00;99.90
4518;DHT22;2271;49.464;11.070;2022-09-17T13:24:21;15.00;99.90
4518;DHT22;2271;49.464;11.070;2022-09-17T13:26:51;15.10;99.90
4518;DHT22;2271;49.464;11.070;2022-09-17T13:43:08;13.50;99.90
4518;DHT22;2271;49.464;11.070;2022-09-17T13:48:25;13.30;99.90
4518;DHT22;2271;49.464;11.070;2022-09-17T13:50:53;13.30;99.90
4518;DHT22;2271;49.464;11.070;2022-09-17T13:53:21;13.20;99.90
4518;DHT22;2271;49.464;11.070;2022-09-17T13:55:53;13.10;99.90
4518;DHT22;2271;49.464;11.070;2022-09-17T13:58:28;13.10;99.90
4518;DHT22;2271;49.464;11.070;2022-09-17T14:01:11;13.00;99.90
4518;DHT22;2271;49.464;11.070;2022-09-17T14:24:23;14.00;99.90
4518;DHT22;2271;49.464;11.070;2022-09-17T14:29:54;14.20;99.90
4518;DHT22;2271;49.464;11.070;2022-09-17T14:34:52;14.20;99.90
4518;DHT22;2271;49.464;11.070;2022-09-17T14:37:19;14.30;99.90
4518;DHT22;2271;49.464;11.070;2022-09-17T14:39:48;14.50;99.90
4518;DHT22;2271;49.464;11.070;2022-09-17T14:42:17;14.50;99.90
4518;DHT22;2271;49.464;11.070;2022-09-17T14:44:58;14.50;99.90
4518;DHT22;2271;49.464;11.070;2022-09-17T14:47:24;14.50;99.90
4518;DHT22;2271;49.464;11.070;2022-09-17T14:49:52;14.50;99.90
4518;DHT22;2271;49.464;11.070;2022-09-17T14:52:29;14.40;99.90
4518;DHT22;2271;49.464;11.070;2022-09-17T14:55:30;14.30;99.90
4518;DHT22;2271;49.464;11.070;2022-09-17T14:57:57;14.30;99.90
4518;DHT22;2271;49.464;11.070;2022-09-17T15:00:37;14.30;99.90
4518;DHT22;2271;49.464;11.070;2022-09-17T15:03:03;14.30;99.90
4518;DHT22;2271;49.464;11.070;2022-09-17T15:05:33;14.20;99.90
4518;DHT22;2271;49.464;11.070;2022-09-17T15:11:00;14.30;99.90
4518;DHT22;2271;49.464;11.070;2022-09-17T15:13:33;14.30;99.90
4518;DHT22;2271;49.464;11.070;2022-09-17T15:18:42;14.50;99.90
4518;DHT22;2271;49.464;11.070;2022-09-17T15:21:41;15.20;99.90
4518;DHT22;2271;49.464;11.070;2022-09-17T15:26:53;16.30;99.90
4518;DHT22;2271;49.464;11.070;2022-09-17T15:29:22;16.60;99.90
4518;DHT22;2271;49.464;11.070;2022-09-17T15:31:49;17.00;99.90
4518;DHT22;2271;49.464;11.070;2022-09-17T15:34:15;17.10;99.90
4518;DHT22;2271;49.464;11.070;2022-09-17T15:37:04;17.00;99.90
4518;DHT22;2271;49.464;11.070;2022-09-17T15:39:37;16.40;99.90
4518;DHT22;2271;49.464;11.070;2022-09-17T15:42:04;15.80;99.90
4518;DHT22;2271;49.464;11.070;2022-09-17T15:44:29;15.40;99.90
4518;DHT22;2271;49.464;11.070;2022-09-17T15:50:48;15.00;99.90
4518;DHT22;2271;49.464;11.070;2022-09-17T15:53:21;15.20;99.90
4518;DHT22;2271;49.464;11.070;2022-09-17T15:56:12;15.00;99.90
4518;DHT22;2271;49.464;11.070;2022-09-17T16:08:43;14.50;99.90
4518;DHT22;2271;49.464;11.070;2022-09-17T16:11:08;14.50;99.90
4518;DHT22;2271;49.464;11.070;2022-09-17T16:13:34;14.40;99.90
4518;DHT22;2271;49.464;11.070;2022-09-17T16:16:00;14.30;99.90
4518;DHT22;2271;49.464;11.070;2022-09-17T16:18:26;14.40;99.90
4518;DHT22;2271;49.464;11.070;2022-09-17T16:20:52;14.40;99.90
4518;DHT22;2271;49.464;11.070;2022-09-17T16:23:17;14.30;99.90
4518;DHT22;2271;49.464;11.070;2022-09-17T16:25:43;14.20;99.90
4518;DHT22;2271;49.464;11.070;2022-09-17T16:28:19;14.20;99.90
4518;DHT22;2271;49.464;11.070;2022-09-17T16:30:46;14.10;99.90
4518;DHT22;2271;49.464;11.070;2022-09-17T16:33:13;14.10;99.90
4518;DHT22;2271;49.464;11.070;2022-09-17T16:35:40;14.10;99.90
4518;DHT22;2271;49.464;11.070;2022-09-17T16:38:06;14.10;99.90
4518;DHT22;2271;49.464;11.070;2022-09-17T16:40:32;14.00;99.90
4518;DHT22;2271;49.464;11.070;2022-09-17T16:43:01;13.90;99.90
4518;DHT22;2271;49.464;11.070;2022-09-17T16:45:28;13.90;99.90
4518;DHT22;2271;49.464;11.070;2022-09-17T16:47:54;13.80;99.90
4518;DHT22;2271;49.464;11.070;2022-09-17T16:50:20;13.80;99.90
4518;DHT22;2271;49.464;11.070;2022-09-17T16:52:46;13.80;99.90
4518;DHT22;2271;49.464;11.070;2022-09-17T16:55:14;13.90;99.90
4518;DHT22;2271;49.464;11.070;2022-09-17T16:57:40;13.80;99.90
4518;DHT22;2271;49.464;11.070;2022-09-17T17:00:09;13.80;99.90
4518;DHT22;2271;49.464;11.070;2022-09-17T17:02:40;13.60;99.90
4518;DHT22;2271;49.464;11.070;2022-09-17T17:05:06;13.20;99.90
4518;DHT22;2271;49.464;11.070;2022-09-17T17:07:34;13.10;99.90
4518;DHT22;2271;49.464;11.070;2022-09-17T17:09:59;12.90;99.90
4518;DHT22;2271;49.464;11.070;2022-09-17T17:12:26;12.80;99.90
4518;DHT22;2271;49.464;11.070;2022-09-17T17:14:52;12.80;99.90
4518;DHT22;2271;49.464;11.070;2022-09-17T17:17:19;12.80;99.90
4518;DHT22;2271;49.464;11.070;2022-09-17T17:19:45;12.80;99.90
4518;DHT22;2271;49.464;11.070;2022-09-17T17:22:12;12.70;99.90
4518;DHT22;2271;49.464;11.070;2022-09-17T17:24:37;12.70;99.90
4518;DHT22;2271;49.464;11.070;2022-09-17T17:27:03;12.70;99.90
4518;DHT22;2271;49.464;11.070;2022-09-17T17:29:29;12.80;99.90
4518;DHT22;2271;49.464;11.070;2022-09-17T17:31:55;12.70;99.90
4518;DHT22;2271;49.464;11.070;2022-09-17T17:34:21;12.70;99.90
4518;DHT22;2271;49.464;11.070;2022-09-17T17:36:49;12.60;99.90
4518;DHT22;2271;49.464;11.070;2022-09-17T17:39:15;12.60;99.90
4518;DHT22;2271;49.464;11.070;2022-09-17T17:41:41;12.60;99.90
4518;DHT22;2271;49.464;11.070;2022-09-17T17:44:08;12.50;99.90
4518;DHT22;2271;49.464;11.070;2022-09-17T17:46:37;12.50;99.90
4518;DHT22;2271;49.464;11.070;2022-09-17T17:49:04;12.40;99.90
4518;DHT22;2271;49.464;11.070;2022-09-17T17:51:30;12.40;99.90
4518;DHT22;2271;49.464;11.070;2022-09-17T17:53:55;12.40;99.90
4518;DHT22;2271;49.464;11.070;2022-09-17T17:56:21;12.50;99.90
4518;DHT22;2271;49.464;11.070;2022-09-17T17:58:52;12.40;99.90
4518;DHT22;2271;49.464;11.070;2022-09-17T18:01:21;12.40;99.90
4518;DHT22;2271;49.464;11.070;2022-09-17T18:03:47;12.20;99.90
4518;DHT22;2271;49.464;11.070;2022-09-17T18:06:13;12.20;99.90
4518;DHT22;2271;49.464;11.070;2022-09-17T18:08:40;12.30;99.90
4518;DHT22;2271;49.464;11.070;2022-09-17T18:11:08;12.30;99.90
4518;DHT22;2271;49.464;11.070;2022-09-17T18:13:35;12.30;99.90
4518;DHT22;2271;49.464;11.070;2022-09-17T18:16:02;12.30;99.90
4518;DHT22;2271;49.464;11.070;2022-09-17T18:18:34;12.30;99.90
4518;DHT22;2271;49.464;11.070;2022-09-17T18:21:05;12.20;99.90
4518;DHT22;2271;49.464;11.070;2022-09-17T18:23:33;12.20;99.90
4518;DHT22;2271;49.464;11.070;2022-09-17T18:26:00;12.20;99.90
4518;DHT22;2271;49.464;11.070;2022-09-17T18:28:28;12.20;99.90
4518;DHT22;2271;49.464;11.070;2022-09-17T18:30:55;12.20;99.90
4518;DHT22;2271;49.464;11.070;2022-09-17T18:33:25;12.10;99.90
4518;DHT22;2271;49.464;11.070;2022-09-17T18:35:52;12.10;99.90
4518;DHT22;2271;49.464;11.070;2022-09-17T18:38:22;12.00;99.90
4518;DHT22;2271;49.464;11.070;2022-09-17T18:40:48;12.00;99.90
4518;DHT22;2271;49.464;11.070;2022-09-17T18:43:14;12.10;99.90
4518;DHT22;2271;49.464;11.070;2022-09-17T18:45:40;12.10;99.90
4518;DHT22;2271;49.464;11.070;2022-09-17T18:48:06;12.10;99.90
4518;DHT22;2271;49.464;11.070;2022-09-17T18:50:32;12.10;99.90
4518;DHT22;2271;49.464;11.070;2022-09-17T18:52:58;12.00;99.90
4518;DHT22;2271;49.464;11.070;2022-09-17T18:55:24;12.00;99.90
4518;DHT22;2271;49.464;11.070;2022-09-17T18:57:50;12.00;99.90
4518;DHT22;2271;49.464;11.070;2022-09-17T19:00:20;12.00;99.90
4518;DHT22;2271;49.464;11.070;2022-09-17T19:02:49;12.00;99.90
4518;DHT22;2271;49.464;11.070;2022-09-17T19:05:15;12.00;99.90
4518;DHT22;2271;49.464;11.070;2022-09-17T19:07:45;11.90;99.90
4518;DHT22;2271;49.464;11.070;2022-09-17T19:10:11;11.90;99.90
4518;DHT22;2271;49.464;11.070;2022-09-17T19:12:37;11.80;99.90
4518;DHT22;2271;49.464;11.070;2022-09-17T19:15:04;11.80;99.90
4518;DHT22;2271;49.464;11.070;2022-09-17T19:17:30;11.80;99.90
4518;DHT22;2271;49.464;11.070;2022-09-17T19:19:55;11.80;99.90
4518;DHT22;2271;49.464;11.070;2022-09-17T19:22:22;11.80;99.90
4518;DHT22;2271;49.464;11.070;2022-09-17T19:24:48;11.80;99.90
4518;DHT22;2271;49.464;11.070;2022-09-17T19:27:13;11.80;99.90
4518;DHT22;2271;49.464;11.070;2022-09-17T19:29:39;11.80;99.90
4518;DHT22;2271;49.464;11.070;2022-09-17T19:32:04;11.80;99.90
4518;DHT22;2271;49.464;11.070;2022-09-17T19:34:30;11.80;99.90
4518;DHT22;2271;49.464;11.070;2022-09-17T19:36:55;11.70;99.90
4518;DHT22;2271;49.464;11.070;2022-09-17T19:39:21;11.80;99.90
4518;DHT22;2271;49.464;11.070;2022-09-17T19:41:47;11.80;99.90